createdAt,value
2019-02-26T00:00:03.103Z,91.7
2019-02-26T00:01:03.770Z,92.4
2019-02-26T00:02:02.963Z,92.1
2019-02-26T00:03:05.005Z,91.7
2019-02-26T00:04:03.848Z,91
2019-02-26T00:05:03.850Z,90.7
2019-02-26T00:06:04.010Z,91.7
2019-02-26T00:07:03.432Z,90.7
2019-02-26T00:08:02.978Z,91.7
2019-02-26T00:09:04.013Z,91.7
2019-02-26T00:10:07.277Z,91.9
2019-02-26T00:11:10.899Z,91.4
2019-02-26T00:12:03.015Z,91.4
2019-02-26T00:13:02.899Z,91.7
2019-02-26T00:14:03.228Z,91
2019-02-26T00:15:03.051Z,91.9
2019-02-26T00:16:14.972Z,93.8
2019-02-26T00:17:15.697Z,92.4
2019-02-26T00:18:03.293Z,91.4
2019-02-26T00:19:14.342Z,91.7
2019-02-26T00:20:13.207Z,92.1
2019-02-26T00:21:05.219Z,91.2
2019-02-26T00:22:02.949Z,91
2019-02-26T00:23:04.618Z,93.8
2019-02-26T00:24:12.945Z,92.6
2019-02-26T00:25:13.283Z,94
2019-02-26T00:26:03.113Z,92.4
2019-02-26T00:27:09.830Z,92.6
2019-02-26T00:28:03.046Z,91.9
2019-02-26T00:29:08.571Z,90.7
2019-02-26T00:30:03.163Z,90.5
2019-02-26T00:31:06.214Z,91.4
2019-02-26T00:32:03.009Z,90
2019-02-26T00:33:05.536Z,90.7
2019-02-26T00:34:02.971Z,90
2019-02-26T00:35:04.527Z,90
2019-02-26T00:36:13.212Z,90
2019-02-26T00:37:08.630Z,92.4
2019-02-26T00:38:03.713Z,92.4
2019-02-26T00:39:07.439Z,93.3
2019-02-26T00:40:02.608Z,94.5
2019-02-26T00:41:06.258Z,94.9
2019-02-26T00:42:05.546Z,93.1
2019-02-26T00:43:06.768Z,94.2
2019-02-26T00:44:06.741Z,93.8
2019-02-26T00:45:08.095Z,94.2
2019-02-26T00:46:10.457Z,92.4
2019-02-26T00:47:09.243Z,94.2
2019-02-26T00:48:03.753Z,94.7
2019-02-26T00:49:07.780Z,93.3
2019-02-26T00:50:13.746Z,97
2019-02-26T00:51:03.364Z,95.6
2019-02-26T00:52:12.890Z,97
2019-02-26T00:53:04.211Z,98.9
2019-02-26T00:54:04.364Z,99.6
2019-02-26T00:55:09.623Z,100.1
2019-02-26T00:56:10.466Z,100.8
2019-02-26T00:57:13.910Z,100.5
2019-02-26T00:58:12.877Z,99.4
2019-02-26T00:59:02.911Z,98.7
2019-02-26T01:00:12.415Z,99.4
2019-02-26T01:01:02.992Z,97.5
2019-02-26T01:02:03.640Z,99.1
2019-02-26T01:03:12.773Z,97.5
2019-02-26T01:04:02.914Z,98.7
2019-02-26T01:05:13.039Z,98.9
2019-02-26T01:06:08.121Z,97.7
2019-02-26T01:07:07.723Z,99.4
2019-02-26T01:08:03.821Z,98.9
2019-02-26T01:09:11.403Z,98.9
2019-02-26T01:10:03.032Z,99.8
2019-02-26T01:11:08.559Z,100.3
2019-02-26T01:12:02.910Z,99.8
2019-02-26T01:13:07.495Z,100.8
2019-02-26T01:14:03.743Z,99.1
2019-02-26T01:15:11.568Z,99.1
2019-02-26T01:16:03.711Z,99.8
2019-02-26T01:17:03.888Z,99.8
2019-02-26T01:18:05.856Z,97.7
2019-02-26T01:19:03.498Z,101
2019-02-26T01:20:05.942Z,99.4
2019-02-26T01:21:04.531Z,100.1
2019-02-26T01:22:03.274Z,99.8
2019-02-26T01:23:02.850Z,100.5
2019-02-26T01:24:08.744Z,101
2019-02-26T01:25:02.941Z,99.8
2019-02-26T01:26:03.656Z,99.8
2019-02-26T01:27:03.161Z,102.2
2019-02-26T01:28:03.697Z,101.5
2019-02-26T01:29:03.428Z,101.9
2019-02-26T01:30:03.690Z,104
2019-02-26T01:31:07.531Z,102.9
2019-02-26T01:32:03.593Z,103.6
2019-02-26T01:33:09.909Z,104.5
2019-02-26T01:34:03.564Z,102.9
2019-02-26T01:35:12.493Z,104.5
2019-02-26T01:36:03.202Z,103.8
2019-02-26T01:37:12.022Z,103.8
2019-02-26T01:38:03.741Z,104
2019-02-26T01:39:02.929Z,101.5
2019-02-26T01:40:15.778Z,103.8
2019-02-26T01:41:02.886Z,102.6
2019-02-26T01:42:03.713Z,101.2
2019-02-26T01:43:05.805Z,102.6
2019-02-26T01:44:03.549Z,102.2
2019-02-26T01:45:03.468Z,102.4
2019-02-26T01:46:03.490Z,101
2019-02-26T01:47:04.914Z,101.5
2019-02-26T01:48:16.617Z,101.5
2019-02-26T01:49:04.544Z,99.6
2019-02-26T01:50:12.873Z,99.1
2019-02-26T01:51:03.618Z,98.9
2019-02-26T01:52:03.300Z,96.3
2019-02-26T01:53:03.634Z,94.9
2019-02-26T01:54:12.863Z,95.2
2019-02-26T01:55:03.051Z,94.7
2019-02-26T01:56:05.414Z,95.2
2019-02-26T01:57:03.241Z,94.7
2019-02-26T01:58:03.616Z,95.6
2019-02-26T01:59:03.288Z,94.7
2019-02-26T02:00:07.129Z,96.3
2019-02-26T02:01:03.249Z,95.9
2019-02-26T02:02:03.750Z,94.5
2019-02-26T02:03:03.577Z,94.9
2019-02-26T02:04:03.785Z,93.3
2019-02-26T02:05:07.268Z,94.5
2019-02-26T02:06:03.651Z,93.1
2019-02-26T02:07:06.209Z,94
2019-02-26T02:08:03.845Z,92.6
2019-02-26T02:09:03.264Z,92.6
2019-02-26T02:10:03.841Z,91.4
2019-02-26T02:11:09.515Z,91
2019-02-26T02:12:11.131Z,91
2019-02-26T02:13:11.421Z,90
2019-02-26T02:14:13.107Z,90
2019-02-26T02:15:03.707Z,88.4
2019-02-26T02:16:09.126Z,87.9
2019-02-26T02:17:13.637Z,89.6
2019-02-26T02:18:06.344Z,88.4
2019-02-26T02:19:03.467Z,89.6
2019-02-26T02:20:18.435Z,88.6
2019-02-26T02:21:02.624Z,89.3
2019-02-26T02:22:03.517Z,88.2
2019-02-26T02:23:07.281Z,91.2
2019-02-26T02:24:17.427Z,91.4
2019-02-26T02:25:03.315Z,90.3
2019-02-26T02:26:13.394Z,93.1
2019-02-26T02:27:03.431Z,92.1
2019-02-26T02:28:04.751Z,92.4
2019-02-26T02:29:03.121Z,90.7
2019-02-26T02:30:03.795Z,93.3
2019-02-26T02:31:03.325Z,89.8
2019-02-26T02:32:07.938Z,91.4
2019-02-26T02:33:03.154Z,92.6
2019-02-26T02:34:03.738Z,90
2019-02-26T02:35:15.292Z,91.4
2019-02-26T02:36:03.351Z,90.3
2019-02-26T02:37:03.100Z,88.9
2019-02-26T02:38:05.187Z,91.2
2019-02-26T02:39:03.321Z,88.2
2019-02-26T02:40:03.735Z,89.1
2019-02-26T02:41:03.101Z,89.1
2019-02-26T02:42:03.667Z,89.3
2019-02-26T02:43:15.931Z,89.6
2019-02-26T02:44:03.270Z,91.4
2019-02-26T02:45:17.746Z,91.7
2019-02-26T02:46:03.436Z,91.4
2019-02-26T02:47:11.403Z,92.8
2019-02-26T02:48:13.645Z,91.4
2019-02-26T02:49:15.166Z,92.8
2019-02-26T02:50:17.950Z,92.4
2019-02-26T02:51:14.097Z,92.4
2019-02-26T02:52:12.107Z,94.5
2019-02-26T02:53:04.226Z,95.4
2019-02-26T02:54:03.029Z,94.7
2019-02-26T02:55:16.279Z,94.9
2019-02-26T02:56:12.951Z,93.5
2019-02-26T02:57:10.212Z,93.5
2019-02-26T02:58:03.819Z,92.1
2019-02-26T02:59:14.088Z,92.8
2019-02-26T03:00:08.799Z,93.8
2019-02-26T03:01:03.047Z,92.6
2019-02-26T03:02:03.329Z,92.6
2019-02-26T03:03:02.633Z,92.6
2019-02-26T03:04:03.851Z,93.8
2019-02-26T03:05:03.017Z,93.5
2019-02-26T03:06:12.464Z,94
2019-02-26T03:07:03.465Z,93.8
2019-02-26T03:08:03.705Z,93.3
2019-02-26T03:09:02.985Z,93.3
2019-02-26T03:10:12.185Z,93.3
2019-02-26T03:11:03.400Z,94.9
2019-02-26T03:12:03.177Z,92.6
2019-02-26T03:13:03.462Z,94
2019-02-26T03:14:02.890Z,94.2
2019-02-26T03:15:10.274Z,93.5
2019-02-26T03:16:02.817Z,96.1
2019-02-26T03:17:16.900Z,96.3
2019-02-26T03:18:14.378Z,95.9
2019-02-26T03:19:14.438Z,94.9
2019-02-26T03:20:10.273Z,95.4
2019-02-26T03:21:05.122Z,95.2
2019-02-26T03:22:02.728Z,94
2019-02-26T03:23:19.072Z,95.9
2019-02-26T03:24:10.624Z,92.8
2019-02-26T03:25:03.390Z,93.1
2019-02-26T03:26:03.044Z,92.1
2019-02-26T03:27:03.593Z,90.5
2019-02-26T03:28:03.132Z,91.4
2019-02-26T03:29:04.121Z,90.7
2019-02-26T03:30:02.923Z,91.7
2019-02-26T03:31:02.695Z,89.8
2019-02-26T03:32:03.311Z,91.4
2019-02-26T03:33:05.331Z,91.4
2019-02-26T03:34:25.718Z,91
2019-02-26T03:35:16.718Z,91.9
2019-02-26T03:36:16.491Z,90.7
2019-02-26T03:37:11.227Z,90.7
2019-02-26T03:38:03.946Z,92.8
2019-02-26T03:39:03.569Z,91
2019-02-26T03:40:08.746Z,92.8
2019-02-26T03:41:03.921Z,91.4
2019-02-26T03:42:03.659Z,92.6
2019-02-26T03:43:13.061Z,92.1
2019-02-26T03:44:08.960Z,92.4
2019-02-26T03:45:04.047Z,91.9
2019-02-26T03:46:02.818Z,92.8
2019-02-26T03:47:03.228Z,92.6
2019-02-26T03:48:03.466Z,91.2
2019-02-26T03:49:03.859Z,92.4
2019-02-26T03:50:09.521Z,91.2
2019-02-26T03:51:02.982Z,91.2
2019-02-26T03:52:03.425Z,90.5
2019-02-26T03:53:03.654Z,93.8
2019-02-26T03:54:03.736Z,89.6
2019-02-26T03:55:18.576Z,93.3
2019-02-26T03:56:17.649Z,94.5
2019-02-26T03:57:02.997Z,95.2
2019-02-26T03:58:03.793Z,94.2
2019-02-26T03:59:11.994Z,95.6
2019-02-26T04:00:16.821Z,95.2
2019-02-26T04:01:18.333Z,95.2
2019-02-26T04:02:03.672Z,95.6
2019-02-26T04:03:16.745Z,95.6
2019-02-26T04:04:07.914Z,95.4
2019-02-26T04:05:09.079Z,95.2
2019-02-26T04:06:12.360Z,94.5
2019-02-26T04:07:10.883Z,94.5
2019-02-26T04:08:04.763Z,95.2
2019-02-26T04:09:03.124Z,95.9
2019-02-26T04:10:03.391Z,96.8
2019-02-26T04:11:02.597Z,96.1
2019-02-26T04:12:03.838Z,97.3
2019-02-26T04:13:03.039Z,97.3
2019-02-26T04:14:03.663Z,96.6
2019-02-26T04:15:03.276Z,97.5
2019-02-26T04:16:04.946Z,97.5
2019-02-26T04:17:09.255Z,98.4
2019-02-26T04:18:03.398Z,98.7
2019-02-26T04:19:05.821Z,97.7
2019-02-26T04:20:06.510Z,98.9
2019-02-26T04:21:17.734Z,98.2
2019-02-26T04:22:03.356Z,98.4
2019-02-26T04:23:03.297Z,99.4
2019-02-26T04:24:11.508Z,97.5
2019-02-26T04:25:09.590Z,99.1
2019-02-26T04:26:03.123Z,97.7
2019-02-26T04:27:02.895Z,97.7
2019-02-26T04:28:11.228Z,97.3
2019-02-26T04:29:03.254Z,98
2019-02-26T04:30:13.554Z,98
2019-02-26T04:31:03.545Z,97.5
2019-02-26T04:32:03.705Z,99.4
2019-02-26T04:33:14.033Z,99.1
2019-02-26T04:34:08.826Z,100.1
2019-02-26T04:35:03.168Z,100.8
2019-02-26T04:36:03.354Z,101.2
2019-02-26T04:37:13.023Z,99.6
2019-02-26T04:38:06.549Z,101.2
2019-02-26T04:39:03.193Z,101
2019-02-26T04:40:14.326Z,100.1
2019-02-26T04:41:16.055Z,100.1
2019-02-26T04:42:15.040Z,99.1
2019-02-26T04:43:13.025Z,100.1
2019-02-26T04:44:06.488Z,99.4
2019-02-26T04:45:09.807Z,99.4
2019-02-26T04:46:13.799Z,98.9
2019-02-26T04:47:06.220Z,100.1
2019-02-26T04:48:03.649Z,99.8
2019-02-26T04:49:03.861Z,99.1
2019-02-26T04:50:09.347Z,99.6
2019-02-26T04:51:03.186Z,98.4
2019-02-26T04:52:17.416Z,98.7
2019-02-26T04:53:11.461Z,99.4
2019-02-26T04:54:03.741Z,98.2
2019-02-26T04:55:03.640Z,98.7
2019-02-26T04:56:15.213Z,98.9
2019-02-26T04:57:03.940Z,97
2019-02-26T04:58:03.229Z,98
2019-02-26T04:59:14.964Z,97.3
2019-02-26T05:00:10.891Z,98.4
2019-02-26T05:01:16.238Z,98.7
2019-02-26T05:02:03.548Z,99.1
2019-02-26T05:03:16.970Z,98.2
2019-02-26T05:04:03.258Z,98.4
2019-02-26T05:05:03.001Z,98.7
2019-02-26T05:06:11.054Z,97.5
2019-02-26T05:07:16.259Z,95.9
2019-02-26T05:08:17.174Z,96.1
2019-02-26T05:09:10.747Z,96.1
2019-02-26T05:10:03.470Z,95.2
2019-02-26T05:11:02.877Z,93.8
2019-02-26T05:12:03.680Z,95.4
2019-02-26T05:13:09.983Z,95.2
2019-02-26T05:14:03.407Z,93.5
2019-02-26T05:15:03.868Z,93.8
2019-02-26T05:16:03.616Z,93.3
2019-02-26T05:17:03.472Z,91.9
2019-02-26T05:18:03.116Z,91.2
2019-02-26T05:19:03.318Z,90.7
2019-02-26T05:20:18.276Z,90.7
2019-02-26T05:21:13.122Z,89.6
2019-02-26T05:22:07.257Z,92.4
2019-02-26T05:23:06.567Z,91
2019-02-26T05:24:03.291Z,91.7
2019-02-26T05:25:19.256Z,91.7
2019-02-26T05:26:18.762Z,91.7
2019-02-26T05:27:03.165Z,92.6
2019-02-26T05:28:14.497Z,91.2
2019-02-26T05:29:03.571Z,91.2
2019-02-26T05:30:03.276Z,91.2
2019-02-26T05:31:15.186Z,90.3
2019-02-26T05:32:09.436Z,91.9
2019-02-26T05:33:05.791Z,91.4
2019-02-26T05:34:03.194Z,90.5
2019-02-26T05:35:03.432Z,90.7
2019-02-26T05:36:13.844Z,91.2
2019-02-26T05:37:14.010Z,90.5
2019-02-26T05:38:09.783Z,91
2019-02-26T05:39:03.114Z,92.8
2019-02-26T05:40:03.756Z,91.9
2019-02-26T05:41:03.247Z,92.6
2019-02-26T05:42:06.544Z,92.1
2019-02-26T05:43:06.957Z,92.6
2019-02-26T05:44:10.981Z,93.1
2019-02-26T05:45:09.698Z,93.3
2019-02-26T05:46:04.307Z,92.6
2019-02-26T05:47:03.819Z,94.5
2019-02-26T05:48:03.333Z,94
2019-02-26T05:49:19.290Z,93.8
2019-02-26T05:50:16.855Z,94.5
2019-02-26T05:51:11.700Z,97.5
2019-02-26T05:52:07.388Z,94.9
2019-02-26T05:53:13.585Z,96.3
2019-02-26T05:54:21.415Z,96.8
2019-02-26T05:55:03.736Z,95.4
2019-02-26T05:56:03.388Z,94.7
2019-02-26T05:57:32.461Z,94.5
2019-02-26T05:58:03.660Z,95.6
2019-02-26T05:59:17.433Z,94.2
2019-02-26T06:00:03.816Z,94.2
2019-02-26T06:01:03.414Z,94.9
2019-02-26T06:02:02.944Z,95.6
2019-02-26T06:03:16.221Z,94.7
2019-02-26T06:04:13.104Z,95.6
2019-02-26T06:05:02.900Z,97.3
2019-02-26T06:06:03.398Z,97.3
2019-02-26T06:07:04.998Z,98
2019-02-26T06:08:03.274Z,99.8
2019-02-26T06:09:08.096Z,99.4
2019-02-26T06:10:03.230Z,98
2019-02-26T06:11:03.675Z,98.4
2019-02-26T06:12:03.328Z,98.9
2019-02-26T06:13:15.640Z,98.7
2019-02-26T06:14:12.899Z,97.5
2019-02-26T06:15:08.690Z,98.2
2019-02-26T06:16:07.772Z,98.7
2019-02-26T06:17:03.771Z,99.6
2019-02-26T06:18:03.238Z,100.8
2019-02-26T06:19:03.550Z,100.5
2019-02-26T06:20:11.224Z,100.8
2019-02-26T06:21:03.089Z,99.6
2019-02-26T06:22:03.042Z,101
2019-02-26T06:23:02.844Z,100.3
2019-02-26T06:24:03.932Z,101.2
2019-02-26T06:25:24.719Z,102.6
2019-02-26T06:26:18.066Z,100.3
2019-02-26T06:27:03.327Z,102.2
2019-02-26T06:28:18.401Z,101.5
2019-02-26T06:29:03.420Z,102.2
2019-02-26T06:30:12.726Z,102.2
2019-02-26T06:31:03.808Z,103.8
2019-02-26T06:32:12.058Z,102.6
2019-02-26T06:33:14.400Z,104.5
2019-02-26T06:34:15.861Z,102.2
2019-02-26T06:35:14.282Z,102.2
2019-02-26T06:36:06.621Z,102.9
2019-02-26T06:37:12.119Z,101.9
2019-02-26T06:38:11.770Z,102.6
2019-02-26T06:39:06.216Z,101.7
2019-02-26T06:40:07.679Z,101.7
2019-02-26T06:41:03.403Z,102.6
2019-02-26T06:42:14.404Z,100.8
2019-02-26T06:43:03.273Z,101.7
2019-02-26T06:44:03.490Z,101.5
2019-02-26T06:45:15.573Z,101.7
2019-02-26T06:46:14.070Z,102.4
2019-02-26T06:47:09.257Z,101.5
2019-02-26T06:48:02.936Z,101.5
2019-02-26T06:49:03.738Z,99.4
2019-02-26T06:50:13.039Z,100.8
2019-02-26T06:51:07.340Z,100.5
2019-02-26T06:52:02.957Z,100.5
2019-02-26T06:53:14.237Z,97.7
2019-02-26T06:54:03.443Z,101.7
2019-02-26T06:55:07.956Z,98.4
2019-02-26T06:56:03.153Z,99.8
2019-02-26T06:57:03.469Z,100.3
2019-02-26T06:58:03.062Z,99.8
2019-02-26T06:59:12.295Z,99.8
2019-02-26T07:00:04.494Z,98.9
2019-02-26T07:01:03.103Z,100.1
2019-02-26T07:02:03.596Z,100.3
2019-02-26T07:03:02.992Z,99.1
2019-02-26T07:04:03.762Z,100.1
2019-02-26T07:05:03.121Z,99.1
2019-02-26T07:06:05.175Z,100.5
2019-02-26T07:07:14.637Z,98.9
2019-02-26T07:08:06.783Z,100.3
2019-02-26T07:09:03.699Z,100.1
2019-02-26T07:10:03.070Z,98.9
2019-02-26T07:11:04.191Z,100.8
2019-02-26T07:12:03.131Z,101
2019-02-26T07:13:14.203Z,100.1
2019-02-26T07:14:10.484Z,101
2019-02-26T07:15:03.163Z,101.5
2019-02-26T07:16:05.496Z,99.1
2019-02-26T07:17:03.114Z,101.5
2019-02-26T07:18:19.559Z,100.3
2019-02-26T07:19:14.036Z,100.1
2019-02-26T07:20:03.536Z,100.3
2019-02-26T07:21:02.970Z,101.7
2019-02-26T07:22:13.090Z,99.4
2019-02-26T07:23:12.873Z,98.7
2019-02-26T07:24:03.716Z,96.8
2019-02-26T07:25:03.076Z,98.9
2019-02-26T07:26:03.101Z,97
2019-02-26T07:27:13.362Z,98.4
2019-02-26T07:28:03.201Z,97.3
2019-02-26T07:29:16.642Z,98
2019-02-26T07:30:02.601Z,95.4
2019-02-26T07:31:12.292Z,98
2019-02-26T07:32:03.847Z,94.9
2019-02-26T07:33:12.805Z,95.9
2019-02-26T07:34:03.903Z,95.2
2019-02-26T07:35:14.282Z,94
2019-02-26T07:36:04.426Z,95.4
2019-02-26T07:37:13.911Z,93.5
2019-02-26T07:38:03.821Z,94.7
2019-02-26T07:39:05.476Z,94.5
2019-02-26T07:40:15.826Z,94
2019-02-26T07:41:06.434Z,94.5
2019-02-26T07:42:03.802Z,94.2
2019-02-26T07:43:17.364Z,94.5
2019-02-26T07:44:02.969Z,94.2
2019-02-26T07:45:03.039Z,94.7
2019-02-26T07:46:02.674Z,95.2
2019-02-26T07:47:11.380Z,95.6
2019-02-26T07:48:02.921Z,96.6
2019-02-26T07:49:07.614Z,95.9
2019-02-26T07:50:14.530Z,96.3
2019-02-26T07:51:03.519Z,96.3
2019-02-26T07:52:08.953Z,95.9
2019-02-26T07:53:03.547Z,94.5
2019-02-26T07:54:03.803Z,95.4
2019-02-26T07:55:14.317Z,93.8
2019-02-26T07:56:08.872Z,95.4
2019-02-26T07:57:04.133Z,93.8
2019-02-26T07:58:03.667Z,96.1
2019-02-26T07:59:14.957Z,97
2019-02-26T08:00:03.007Z,95.9
2019-02-26T08:01:02.915Z,96.3
2019-02-26T08:02:13.155Z,95.6
2019-02-26T08:03:04.927Z,94.9
2019-02-26T08:04:03.299Z,95.2
2019-02-26T08:05:03.624Z,95.6
2019-02-26T08:06:14.074Z,95.9
2019-02-26T08:07:03.993Z,94.9
2019-02-26T08:08:03.216Z,95.6
2019-02-26T08:09:16.564Z,94.7
2019-02-26T08:10:12.812Z,94.2
2019-02-26T08:11:03.218Z,95.4
2019-02-26T08:12:13.836Z,95.4
2019-02-26T08:13:08.182Z,93.3
2019-02-26T08:14:02.821Z,96.6
2019-02-26T08:15:15.418Z,95.2
2019-02-26T08:16:05.414Z,97.3
2019-02-26T08:17:06.477Z,97.3
2019-02-26T08:18:05.571Z,98
2019-02-26T08:19:02.534Z,97.5
2019-02-26T08:20:15.054Z,97.7
2019-02-26T08:21:05.396Z,99.4
2019-02-26T08:22:03.837Z,98
2019-02-26T08:23:03.096Z,99.1
2019-02-26T08:24:03.901Z,99.8
2019-02-26T08:25:03.150Z,101.7
2019-02-26T08:26:03.571Z,100.5
2019-02-26T08:27:13.097Z,102.4
2019-02-26T08:28:03.808Z,102.2
2019-02-26T08:29:12.425Z,101.9
2019-02-26T08:30:03.672Z,102.2
2019-02-26T08:31:05.628Z,102.9
2019-02-26T08:32:03.586Z,101.9
2019-02-26T08:33:07.663Z,102.4
2019-02-26T08:34:03.635Z,102.6
2019-02-26T08:35:03.046Z,103.6
2019-02-26T08:36:03.496Z,102.9
2019-02-26T08:37:03.656Z,102.6
2019-02-26T08:38:06.533Z,102.4
2019-02-26T08:39:03.068Z,103.8
2019-02-26T08:40:03.228Z,103.3
2019-02-26T08:41:03.362Z,102.6
2019-02-26T08:42:03.794Z,104
2019-02-26T08:43:03.082Z,101.9
2019-02-26T08:44:02.732Z,102.9
2019-02-26T08:45:03.774Z,101
2019-02-26T08:46:03.827Z,100.8
2019-02-26T08:47:16.302Z,98.9
2019-02-26T08:48:03.186Z,100.8
2019-02-26T08:49:17.529Z,98.9
2019-02-26T08:50:15.067Z,101
2019-02-26T08:51:18.826Z,99.1
2019-02-26T08:52:02.876Z,101.7
2019-02-26T08:53:03.157Z,101.7
2019-02-26T08:54:02.859Z,102.2
2019-02-26T08:55:03.080Z,101
2019-02-26T08:56:04.386Z,102.2
2019-02-26T08:57:03.069Z,99.1
2019-02-26T08:58:03.558Z,99.8
2019-02-26T08:59:03.865Z,99.8
2019-02-26T09:00:03.440Z,100.1
2019-02-26T09:01:03.376Z,98.9
2019-02-26T09:02:03.192Z,101
2019-02-26T09:03:03.619Z,99.6
2019-02-26T09:04:03.493Z,98.9
2019-02-26T09:05:12.127Z,98.2
2019-02-26T09:06:16.441Z,98.2
2019-02-26T09:07:03.020Z,97.7
2019-02-26T09:08:03.214Z,98.4
2019-02-26T09:09:07.027Z,98.4
2019-02-26T09:10:03.212Z,98.2
2019-02-26T09:11:14.217Z,99.6
2019-02-26T09:12:04.046Z,98.4
2019-02-26T09:13:03.490Z,97
2019-02-26T09:14:14.686Z,98.2
2019-02-26T09:15:03.469Z,96.1
2019-02-26T09:16:08.113Z,96.3
2019-02-26T09:17:04.918Z,94.5
2019-02-26T09:18:03.348Z,93.8
2019-02-26T09:19:02.680Z,91.9
2019-02-26T09:20:14.820Z,91.9
2019-02-26T09:21:02.833Z,92.8
2019-02-26T09:22:02.976Z,91.9
2019-02-26T09:23:03.534Z,91.7
2019-02-26T09:24:07.993Z,92.4
2019-02-26T09:25:03.159Z,91
2019-02-26T09:26:07.259Z,91
2019-02-26T09:27:05.316Z,89.6
2019-02-26T09:28:03.492Z,89.6
2019-02-26T09:29:03.011Z,89.8
2019-02-26T09:30:14.081Z,90
2019-02-26T09:31:14.240Z,89.6
2019-02-26T09:32:14.258Z,89.1
2019-02-26T09:33:11.281Z,89.1
2019-02-26T09:34:03.319Z,88.6
2019-02-26T09:35:05.121Z,90.3
2019-02-26T09:36:03.423Z,88.9
2019-02-26T09:37:08.208Z,90.5
2019-02-26T09:38:02.879Z,88.4
2019-02-26T09:39:13.136Z,90
2019-02-26T09:40:05.087Z,89.1
2019-02-26T09:41:03.085Z,88.2
2019-02-26T09:42:09.393Z,87.7
2019-02-26T09:43:03.483Z,86.3
2019-02-26T09:44:11.827Z,86.8
2019-02-26T09:45:03.341Z,86.8
2019-02-26T09:46:16.809Z,87
2019-02-26T09:47:07.905Z,85.8
2019-02-26T09:48:02.890Z,87.5
2019-02-26T09:49:12.822Z,85.4
2019-02-26T09:50:02.963Z,86.1
2019-02-26T09:51:13.731Z,84
2019-02-26T09:52:06.803Z,84
2019-02-26T09:53:03.517Z,84.9
2019-02-26T09:54:03.688Z,86.3
2019-02-26T09:55:03.480Z,84.2
2019-02-26T09:56:03.777Z,87.7
2019-02-26T09:57:03.164Z,86.3
2019-02-26T09:58:03.283Z,86.8
2019-02-26T09:59:12.801Z,87.5
2019-02-26T10:00:03.673Z,87.7
2019-02-26T10:01:03.311Z,85.8
2019-02-26T10:02:06.419Z,86.5
2019-02-26T10:03:14.965Z,86.1
2019-02-26T10:04:05.636Z,85.4
2019-02-26T10:05:03.924Z,86.8
2019-02-26T10:06:03.345Z,85.8
2019-02-26T10:07:14.460Z,86.5
2019-02-26T10:08:05.608Z,85.6
2019-02-26T10:09:03.564Z,84.9
2019-02-26T10:10:14.190Z,85.8
2019-02-26T10:11:05.262Z,85.6
2019-02-26T10:12:15.635Z,86.1
2019-02-26T10:13:05.034Z,86.3
2019-02-26T10:14:12.673Z,86.8
2019-02-26T10:15:05.544Z,87.2
2019-02-26T10:16:09.100Z,87.7
2019-02-26T10:17:03.352Z,88.2
2019-02-26T10:18:09.612Z,87.9
2019-02-26T10:19:03.124Z,87.2
2019-02-26T10:20:09.608Z,86.5
2019-02-26T10:21:03.406Z,87.2
2019-02-26T10:22:13.893Z,87.9
2019-02-26T10:23:06.616Z,88.4
2019-02-26T10:24:04.838Z,90.3
2019-02-26T10:25:03.129Z,90.3
2019-02-26T10:26:10.928Z,92.6
2019-02-26T10:27:15.934Z,90.7
2019-02-26T10:28:17.240Z,90.5
2019-02-26T10:29:08.161Z,92.1
2019-02-26T10:30:16.245Z,91.7
2019-02-26T10:31:09.923Z,93.3
2019-02-26T10:32:03.627Z,92.4
2019-02-26T10:33:03.248Z,94.7
2019-02-26T10:34:18.337Z,94.7
2019-02-26T10:35:15.501Z,94.5
2019-02-26T10:36:15.420Z,94.2
2019-02-26T10:37:03.809Z,94.2
2019-02-26T10:38:11.889Z,93.1
2019-02-26T10:39:03.865Z,93.3
2019-02-26T10:40:03.189Z,93.3
2019-02-26T10:41:05.357Z,94.2
2019-02-26T10:42:03.109Z,95.4
2019-02-26T10:43:03.369Z,94.7
2019-02-26T10:44:03.105Z,95.6
2019-02-26T10:45:03.744Z,96.6
2019-02-26T10:46:03.904Z,95.6
2019-02-26T10:47:10.823Z,98.2
2019-02-26T10:48:03.485Z,96.1
2019-02-26T10:49:03.778Z,97.7
2019-02-26T10:50:04.053Z,97.7
2019-02-26T10:51:07.432Z,97.5
2019-02-26T10:52:03.129Z,98.9
2019-02-26T10:53:19.526Z,97
2019-02-26T10:54:18.024Z,97.5
2019-02-26T10:55:03.361Z,96.3
2019-02-26T10:56:03.777Z,96.1
2019-02-26T10:57:14.701Z,94.9
2019-02-26T10:58:13.446Z,94.9
2019-02-26T10:59:18.821Z,94.5
2019-02-26T11:00:11.051Z,97.5
2019-02-26T11:01:05.778Z,95.2
2019-02-26T11:02:03.670Z,97
2019-02-26T11:03:03.262Z,97.7
2019-02-26T11:04:04.946Z,98
2019-02-26T11:05:03.855Z,98.2
2019-02-26T11:06:15.979Z,98.7
2019-02-26T11:07:14.345Z,99.8
2019-02-26T11:08:10.005Z,100.5
2019-02-26T11:09:03.189Z,99.6
2019-02-26T11:10:03.100Z,99.8
2019-02-26T11:11:16.488Z,100.1
2019-02-26T11:12:08.874Z,97.7
2019-02-26T11:13:03.104Z,97.5
2019-02-26T11:14:17.230Z,98
2019-02-26T11:15:09.430Z,96.3
2019-02-26T11:16:03.385Z,97
2019-02-26T11:17:03.911Z,97.3
2019-02-26T11:18:02.957Z,97.3
2019-02-26T11:19:12.467Z,97
2019-02-26T11:20:07.991Z,97.7
2019-02-26T11:21:03.290Z,97.3
2019-02-26T11:22:04.565Z,97
2019-02-26T11:23:16.060Z,97.3
2019-02-26T11:24:11.395Z,96.6
2019-02-26T11:25:03.556Z,95.2
2019-02-26T11:26:15.285Z,96.3
2019-02-26T11:27:03.615Z,93.3
2019-02-26T11:28:13.039Z,95.2
2019-02-26T11:29:03.693Z,94
2019-02-26T11:30:05.325Z,94.7
2019-02-26T11:31:03.618Z,94.9
2019-02-26T11:32:15.512Z,92.4
2019-02-26T11:33:15.507Z,94.5
2019-02-26T11:34:13.583Z,93.1
2019-02-26T11:35:03.378Z,93.1
2019-02-26T11:36:13.980Z,91.7
2019-02-26T11:37:09.231Z,92.8
2019-02-26T11:38:03.303Z,91.9
2019-02-26T11:39:12.184Z,93.8
2019-02-26T11:40:05.776Z,93.8
2019-02-26T11:41:03.248Z,94.5
2019-02-26T11:42:03.315Z,94.7
2019-02-26T11:43:23.131Z,95.4
2019-02-26T11:44:22.129Z,95.2
2019-02-26T11:45:16.260Z,96.1
2019-02-26T11:46:08.904Z,95.6
2019-02-26T11:47:03.764Z,96.1
2019-02-26T11:48:09.050Z,96.1
2019-02-26T11:49:03.828Z,96.1
2019-02-26T11:50:11.930Z,95.9
2019-02-26T11:51:03.893Z,95.6
2019-02-26T11:52:04.847Z,98
2019-02-26T11:53:03.794Z,94
2019-02-26T11:54:14.826Z,97.7
2019-02-26T11:55:11.456Z,96.3
2019-02-26T11:56:03.449Z,98.2
2019-02-26T11:57:15.739Z,95.9
2019-02-26T11:58:18.469Z,97.7
2019-02-26T11:59:16.376Z,96.3
2019-02-26T12:00:09.322Z,99.1
2019-02-26T12:01:03.115Z,96.3
2019-02-26T12:02:06.667Z,95.6
2019-02-26T12:03:03.595Z,97.5
2019-02-26T12:04:16.531Z,98
2019-02-26T12:05:10.891Z,97.7
2019-02-26T12:06:03.336Z,97
2019-02-26T12:07:09.987Z,98.9
2019-02-26T12:08:02.844Z,96.8
2019-02-26T12:09:16.222Z,97
2019-02-26T12:10:14.885Z,96.6
2019-02-26T12:12:11.717Z,97.3
2019-02-26T12:13:03.637Z,97
2019-02-26T12:13:03.962Z,98.9
2019-02-26T12:14:03.526Z,100.1
2019-02-26T12:16:03.658Z,99.4
2019-02-26T12:17:03.041Z,98.7
2019-02-26T12:18:03.678Z,98.2
2019-02-26T12:19:10.951Z,97.5
2019-02-26T12:20:03.892Z,98.7
2019-02-26T12:21:13.016Z,97.3
2019-02-26T12:22:06.275Z,97.7
2019-02-26T12:23:03.023Z,97
2019-02-26T12:24:12.677Z,95.4
2019-02-26T12:25:11.353Z,97
2019-02-26T12:26:04.219Z,98
2019-02-26T12:27:03.390Z,96.8
2019-02-26T12:28:13.783Z,98.4
2019-02-26T12:29:04.709Z,96.3
2019-02-26T12:30:03.773Z,96.8
2019-02-26T12:31:13.078Z,96.6
2019-02-26T12:32:05.059Z,95.2
2019-02-26T12:33:03.576Z,95.9
2019-02-26T12:34:03.385Z,94.9
2019-02-26T12:35:17.273Z,95.9
2019-02-26T12:36:10.483Z,96.3
2019-02-26T12:37:11.866Z,96.6
2019-02-26T12:38:21.640Z,95.4
2019-02-26T12:39:03.284Z,95.6
2019-02-26T12:40:03.140Z,93.8
2019-02-26T12:41:18.962Z,93.8
2019-02-26T12:42:03.109Z,94.2
2019-02-26T12:43:19.003Z,94.2
2019-02-26T12:44:16.306Z,93.8
2019-02-26T12:45:13.828Z,93.1
2019-02-26T12:46:09.192Z,91.9
2019-02-26T12:47:03.077Z,91.7
2019-02-26T12:48:03.413Z,92.6
2019-02-26T12:49:17.514Z,91
2019-02-26T12:50:11.844Z,91.2
2019-02-26T12:51:08.085Z,90.3
2019-02-26T12:52:03.784Z,91.9
2019-02-26T12:53:03.455Z,90.7
2019-02-26T12:54:15.803Z,91.4
2019-02-26T12:55:10.858Z,91
2019-02-26T12:56:09.127Z,90
2019-02-26T12:57:04.576Z,89.3
2019-02-26T12:58:04.010Z,88.6
2019-02-26T12:59:03.435Z,88.2
2019-02-26T13:00:03.836Z,89.8
2019-02-26T13:01:02.802Z,88.4
2019-02-26T13:02:19.953Z,87.7
2019-02-26T13:03:19.549Z,87.9
2019-02-26T13:04:03.002Z,89.8
2019-02-26T13:05:03.296Z,89.3
2019-02-26T13:06:19.364Z,88.4
2019-02-26T13:08:03.561Z,88.2
2019-02-26T13:09:03.491Z,89.1
2019-02-26T13:09:08.595Z,89.6
2019-02-26T13:10:05.292Z,89.6
2019-02-26T13:11:03.139Z,91.9
2019-02-26T13:12:03.190Z,91.7
2019-02-26T13:13:08.469Z,93.1
2019-02-26T13:14:02.816Z,92.4
2019-02-26T13:15:10.218Z,91.9
2019-02-26T13:16:02.748Z,91.9
2019-02-26T13:17:02.899Z,91.4
2019-02-26T13:18:03.858Z,89.3
2019-02-26T13:19:05.038Z,91.2
2019-02-26T13:20:11.494Z,91.4